Agios Georgios I — SX9857 — position and weather

sailwx.info

Track history (hours):
 
Tides and Currents Weather Stations Pressure Air Temp Water Temp Dewpoint Dewpoint Depression Visibility Wind Speed Wind Dir Waves Ship Positions

Agios Georgios I

Last reported at 2015-May-05 13:33 UTC. Time now 2015-May-05 14:17 UTC.
Position N 37°57' E 023°35'.

Length 59 m; draft 5 m.

Type: Ship (hazmat cat B). MMSI: 239912000.

Date/timePositionNaut miles runAvg speedWind from/ knotsBaromVisibWave heightAir tempDewpointWater temp
2015-May-05 13:33N 37°57' E 023°35'0 0.0
2015-May-05 12:33N 37°57' E 023°35'0 0.0
2015-May-05 11:33N 37°57' E 023°35'0 0.0
2015-May-05 10:33N 37°57' E 023°35'0 0.0
2015-May-05 09:33N 37°57' E 023°35'0 0.0
2015-May-05 08:33N 37°57' E 023°35'0 0.0
2015-May-05 07:33N 37°57' E 023°35'0 0.0
2015-May-05 06:33N 37°57' E 023°35'0 0.0
2015-May-05 05:33N 37°57' E 023°35'1 0.5
2015-May-05 04:34N 37°57' E 023°34'0 0.0
2015-May-05 03:33N 37°57' E 023°34'0 0.0
2015-May-05 02:34N 37°57' E 023°34'0 0.0
2015-May-05 01:34N 37°57' E 023°34'0 0.0
2015-May-05 00:33N 37°57' E 023°34'0 0.0
2015-May-04 23:33N 37°57' E 023°34'0 0.0
2015-May-04 22:33N 37°57' E 023°34'0 0.0
2015-May-04 21:33N 37°57' E 023°34'0 0.0
2015-May-04 20:33N 37°57' E 023°34'0 0.0
2015-May-04 19:33N 37°57' E 023°34'0 0.0
2015-May-04 18:33N 37°57' E 023°34'0 0.0
2015-May-04 17:33N 37°57' E 023°34'0 0.0
2015-May-04 16:33N 37°57' E 023°34'0 0.0
2015-May-04 15:33N 37°57' E 023°34'0 0.0
2015-May-04 14:33N 37°57' E 023°34'0 0.0
2015-May-04 13:33N 37°57' E 023°34'0 0.0
2015-May-04 12:33N 37°57' E 023°34'0 0.0
2015-May-04 11:33N 37°57' E 023°34'0 0.0
2015-May-04 10:33N 37°57' E 023°34'0 0.0
2015-May-04 09:33N 37°57' E 023°34'0 0.0
2015-May-04 08:33N 37°57' E 023°34'0 0.0
2015-May-04 07:33N 37°57' E 023°34'0 0.0
2015-May-04 06:33N 37°57' E 023°34'4 3.7
2015-May-04 05:33N 37°54' E 023°36'9 8.7
2015-May-04 04:33N 37°46' E 023°41'8 8.1
2015-May-04 03:34N 37°40' E 023°47'46 8.6
2015-May-03 22:17N 37°32' E 024°44'7 8.9
2015-May-03 21:29N 37°32' E 024°53'8 8.7
2015-May-03 20:33N 37°32' E 025°03'5 4.8
2015-May-03 19:33N 37°32' E 025°09'0 0.0
2015-May-03 18:33N 37°32' E 025°09'0 0.0
2015-May-03 17:33N 37°32' E 025°09'0 0.0
2015-May-03 16:33N 37°32' E 025°09'0 0.0
2015-May-03 15:33N 37°32' E 025°09'0 0.0
2015-May-03 14:33N 37°32' E 025°09'0 0.0
2015-May-03 13:34N 37°32' E 025°09'0 0.0
2015-May-03 12:33N 37°32' E 025°09'0 0.0
2015-May-03 11:33N 37°32' E 025°09'0 0.0
2015-May-03 10:33N 37°32' E 025°09'0 0.0
2015-May-03 09:33N 37°32' E 025°09'0 0.0
2015-May-03 08:33N 37°32' E 025°09'0 0.0
2015-May-03 07:33N 37°32' E 025°09'0 0.0
2015-May-03 06:33N 37°32' E 025°09'0 0.0
2015-May-03 05:33N 37°32' E 025°09'0 0.0
2015-May-03 04:33N 37°32' E 025°09'0 0.0
2015-May-03 03:33N 37°32' E 025°09'0 0.0
2015-May-03 02:33N 37°32' E 025°09'0 0.0
2015-May-03 01:33N 37°32' E 025°09'0 0.0
2015-May-03 00:33N 37°32' E 025°09'0 0.0
2015-May-02 23:33N 37°32' E 025°09'0 0.0
2015-May-02 22:33N 37°32' E 025°09'0 0.0
2015-May-02 21:33N 37°32' E 025°09'0 0.0
2015-May-02 20:33N 37°32' E 025°09'0 0.0
2015-May-02 19:33N 37°32' E 025°09'0 0.0
2015-May-02 18:33N 37°32' E 025°09'0 0.0
2015-May-02 17:33N 37°32' E 025°09'0 0.0
2015-May-02 16:33N 37°32' E 025°09'5 5.0
2015-May-02 15:33N 37°29' E 025°04'7 7.2
2015-May-02 14:33N 37°26' E 024°56'0 0.0
2015-May-02 13:33N 37°26' E 024°56'0 0.0
2015-May-02 12:33N 37°26' E 024°56'0 0.0
2015-May-02 11:34N 37°26' E 024°56'0 0.0
2015-May-02 10:33N 37°26' E 024°56'0 0.0
2015-May-02 09:33N 37°26' E 024°56'0 0.0
2015-May-02 08:33N 37°26' E 024°56'2 1.6
2015-May-02 07:33N 37°25' E 024°58'0 0.0
2015-May-02 06:33N 37°25' E 024°58'0 0.0
2015-May-02 05:33N 37°25' E 024°58'0 0.1
2015-May-02 04:33N 37°25' E 024°58'0 0.0
2015-May-02 03:33N 37°25' E 024°58'0 0.0
2015-May-02 02:33N 37°25' E 024°58'0 0.0
2015-May-02 01:33N 37°25' E 024°58'1 1.5
2015-May-02 00:33N 37°25' E 024°60'9 8.7
2015-May-01 23:33N 37°18' E 025°07'9 8.7
2015-May-01 22:33N 37°12' E 025°15'8 8.4
2015-May-01 21:33N 37°06' E 025°22'0 0.0
2015-May-01 20:33N 37°06' E 025°22'0 0.0
2015-May-01 19:33N 37°06' E 025°22'0 0.0
2015-May-01 18:33N 37°06' E 025°22'0 0.0
2015-May-01 17:33N 37°06' E 025°22'0 0.0
2015-May-01 16:33N 37°06' E 025°22'0 0.0
2015-May-01 15:33N 37°06' E 025°22'6 6.3
2015-May-01 14:33N 37°10' E 025°16'8 8.2
2015-May-01 13:33N 37°06' E 025°07'1 0.5
2015-May-01 11:05N 37°05' E 025°09'0 0.0
2015-May-01 10:23N 37°05' E 025°09'0 0.0
2015-May-01 09:32N 37°05' E 025°09'0 0.0
2015-May-01 08:26N 37°05' E 025°09'1 0.6
2015-May-01 07:32N 37°05' E 025°08'0 0.0
2015-May-01 06:33N 37°05' E 025°08'0 0.0
2015-May-01 05:33N 37°05' E 025°08'0 0.0
2015-May-01 04:33N 37°05' E 025°08'7 7.2
2015-May-01 03:33N 37°12' E 025°05'9 8.8
2015-May-01 02:33N 37°21' E 025°02'9 8.9
2015-May-01 01:33N 37°29' E 024°58'9 8.8
2015-May-01 00:33N 37°37' E 024°53'  
2015-Apr-25 23:32N 37°39' E 025°53'7 7.3
2015-Apr-25 22:33N 37°37' E 025°44'7 6.9
2015-Apr-25 21:33N 37°35' E 025°36'7 7.3
2015-Apr-25 20:33N 37°34' E 025°27'7 7.4
2015-Apr-25 19:33N 37°32' E 025°18'7 7.2
2015-Apr-25 18:33N 37°29' E 025°09'8 7.8
2015-Apr-25 17:33N 37°27' E 024°60'3 2.9
2015-Apr-25 16:32N 37°26' E 024°56'0 0.0
2015-Apr-25 15:23N 37°26' E 024°56'  
Track history (hours):
 
Tides and Currents Weather Stations Pressure Air Temp Water Temp Dewpoint Dewpoint Depression Visibility Wind Speed Wind Dir Waves Ship Positions

Agios Georgios I

Last reported at 2015-May-05 13:33 UTC. Time now 2015-May-05 14:17 UTC.
Position N 37°57' E 023°35'.

Length 59 m; draft 5 m.

Type: Ship (hazmat cat B). MMSI: 239912000.

Date/timePositionNaut miles runAvg speedWind from/ knotsBaromVisibWave heightAir tempDewpointWater temp
2015-May-05 13:33N 37°57' E 023°35'0 0.0
2015-May-05 12:33N 37°57' E 023°35'0 0.0
2015-May-05 11:33N 37°57' E 023°35'0 0.0
2015-May-05 10:33N 37°57' E 023°35'0 0.0
2015-May-05 09:33N 37°57' E 023°35'0 0.0
2015-May-05 08:33N 37°57' E 023°35'0 0.0
2015-May-05 07:33N 37°57' E 023°35'0 0.0
2015-May-05 06:33N 37°57' E 023°35'0 0.0
2015-May-05 05:33N 37°57' E 023°35'1 0.5
2015-May-05 04:34N 37°57' E 023°34'0 0.0
2015-May-05 03:33N 37°57' E 023°34'0 0.0
2015-May-05 02:34N 37°57' E 023°34'0 0.0
2015-May-05 01:34N 37°57' E 023°34'0 0.0
2015-May-05 00:33N 37°57' E 023°34'0 0.0
2015-May-04 23:33N 37°57' E 023°34'0 0.0
2015-May-04 22:33N 37°57' E 023°34'0 0.0
2015-May-04 21:33N 37°57' E 023°34'0 0.0
2015-May-04 20:33N 37°57' E 023°34'0 0.0
2015-May-04 19:33N 37°57' E 023°34'0 0.0
2015-May-04 18:33N 37°57' E 023°34'0 0.0
2015-May-04 17:33N 37°57' E 023°34'0 0.0
2015-May-04 16:33N 37°57' E 023°34'0 0.0
2015-May-04 15:33N 37°57' E 023°34'0 0.0
2015-May-04 14:33N 37°57' E 023°34'0 0.0
2015-May-04 13:33N 37°57' E 023°34'0 0.0
2015-May-04 12:33N 37°57' E 023°34'0 0.0
2015-May-04 11:33N 37°57' E 023°34'0 0.0
2015-May-04 10:33N 37°57' E 023°34'0 0.0
2015-May-04 09:33N 37°57' E 023°34'0 0.0
2015-May-04 08:33N 37°57' E 023°34'0 0.0
2015-May-04 07:33N 37°57' E 023°34'0 0.0
2015-May-04 06:33N 37°57' E 023°34'4 3.7
2015-May-04 05:33N 37°54' E 023°36'9 8.7
2015-May-04 04:33N 37°46' E 023°41'8 8.1
2015-May-04 03:34N 37°40' E 023°47'46 8.6
2015-May-03 22:17N 37°32' E 024°44'7 8.9
2015-May-03 21:29N 37°32' E 024°53'8 8.7
2015-May-03 20:33N 37°32' E 025°03'5 4.8
2015-May-03 19:33N 37°32' E 025°09'0 0.0
2015-May-03 18:33N 37°32' E 025°09'0 0.0
2015-May-03 17:33N 37°32' E 025°09'0 0.0
2015-May-03 16:33N 37°32' E 025°09'0 0.0
2015-May-03 15:33N 37°32' E 025°09'0 0.0
2015-May-03 14:33N 37°32' E 025°09'0 0.0
2015-May-03 13:34N 37°32' E 025°09'0 0.0
2015-May-03 12:33N 37°32' E 025°09'0 0.0
2015-May-03 11:33N 37°32' E 025°09'0 0.0
2015-May-03 10:33N 37°32' E 025°09'0 0.0
2015-May-03 09:33N 37°32' E 025°09'0 0.0
2015-May-03 08:33N 37°32' E 025°09'0 0.0
2015-May-03 07:33N 37°32' E 025°09'0 0.0
2015-May-03 06:33N 37°32' E 025°09'0 0.0
2015-May-03 05:33N 37°32' E 025°09'0 0.0
2015-May-03 04:33N 37°32' E 025°09'0 0.0
2015-May-03 03:33N 37°32' E 025°09'0 0.0
2015-May-03 02:33N 37°32' E 025°09'0 0.0
2015-May-03 01:33N 37°32' E 025°09'0 0.0
2015-May-03 00:33N 37°32' E 025°09'0 0.0
2015-May-02 23:33N 37°32' E 025°09'0 0.0
2015-May-02 22:33N 37°32' E 025°09'0 0.0
2015-May-02 21:33N 37°32' E 025°09'0 0.0
2015-May-02 20:33N 37°32' E 025°09'0 0.0
2015-May-02 19:33N 37°32' E 025°09'0 0.0
2015-May-02 18:33N 37°32' E 025°09'0 0.0
2015-May-02 17:33N 37°32' E 025°09'0 0.0
2015-May-02 16:33N 37°32' E 025°09'5 5.0
2015-May-02 15:33N 37°29' E 025°04'7 7.2
2015-May-02 14:33N 37°26' E 024°56'0 0.0
2015-May-02 13:33N 37°26' E 024°56'0 0.0
2015-May-02 12:33N 37°26' E 024°56'0 0.0
2015-May-02 11:34N 37°26' E 024°56'0 0.0
2015-May-02 10:33N 37°26' E 024°56'0 0.0
2015-May-02 09:33N 37°26' E 024°56'0 0.0
2015-May-02 08:33N 37°26' E 024°56'2 1.6
2015-May-02 07:33N 37°25' E 024°58'0 0.0
2015-May-02 06:33N 37°25' E 024°58'0 0.0
2015-May-02 05:33N 37°25' E 024°58'0 0.1
2015-May-02 04:33N 37°25' E 024°58'0 0.0
2015-May-02 03:33N 37°25' E 024°58'0 0.0
2015-May-02 02:33N 37°25' E 024°58'0 0.0
2015-May-02 01:33N 37°25' E 024°58'1 1.5
2015-May-02 00:33N 37°25' E 024°60'9 8.7
2015-May-01 23:33N 37°18' E 025°07'9 8.7
2015-May-01 22:33N 37°12' E 025°15'8 8.4
2015-May-01 21:33N 37°06' E 025°22'0 0.0
2015-May-01 20:33N 37°06' E 025°22'0 0.0
2015-May-01 19:33N 37°06' E 025°22'0 0.0
2015-May-01 18:33N 37°06' E 025°22'0 0.0
2015-May-01 17:33N 37°06' E 025°22'0 0.0
2015-May-01 16:33N 37°06' E 025°22'0 0.0
2015-May-01 15:33N 37°06' E 025°22'6 6.3
2015-May-01 14:33N 37°10' E 025°16'8 8.2
2015-May-01 13:33N 37°06' E 025°07'1 0.5
2015-May-01 11:05N 37°05' E 025°09'0 0.0
2015-May-01 10:23N 37°05' E 025°09'0 0.0
2015-May-01 09:32N 37°05' E 025°09'0 0.0
2015-May-01 08:26N 37°05' E 025°09'1 0.6
2015-May-01 07:32N 37°05' E 025°08'0 0.0
2015-May-01 06:33N 37°05' E 025°08'0 0.0
2015-May-01 05:33N 37°05' E 025°08'0 0.0
2015-May-01 04:33N 37°05' E 025°08'7 7.2
2015-May-01 03:33N 37°12' E 025°05'9 8.8
2015-May-01 02:33N 37°21' E 025°02'9 8.9
2015-May-01 01:33N 37°29' E 024°58'9 8.8
2015-May-01 00:33N 37°37' E 024°53'  
2015-Apr-25 23:32N 37°39' E 025°53'7 7.3
2015-Apr-25 22:33N 37°37' E 025°44'7 6.9
2015-Apr-25 21:33N 37°35' E 025°36'7 7.3
2015-Apr-25 20:33N 37°34' E 025°27'7 7.4
2015-Apr-25 19:33N 37°32' E 025°18'7 7.2
2015-Apr-25 18:33N 37°29' E 025°09'8 7.8
2015-Apr-25 17:33N 37°27' E 024°60'3 2.9
2015-Apr-25 16:32N 37°26' E 024°56'0 0.0
2015-Apr-25 15:23N 37°26' E 024°56'  

Dump ship's entire track history